createdAt,value
2016-10-05T00:01:43.093Z,63.64
2016-10-05T00:02:28.405Z,63.35
2016-10-05T00:03:28.763Z,64.31
2016-10-05T00:04:28.319Z,64.4
2016-10-05T00:05:29.270Z,64.5
2016-10-05T00:06:28.270Z,64.59
2016-10-05T00:07:42.913Z,64.69
2016-10-05T00:08:28.242Z,64.88
2016-10-05T00:09:28.911Z,64.79
2016-10-05T00:10:28.170Z,64.5
2016-10-05T00:11:28.134Z,64.88
2016-10-05T00:12:28.108Z,64.79
2016-10-05T00:13:28.081Z,64.59
2016-10-05T00:14:28.459Z,63.83
2016-10-05T00:15:28.053Z,63.54
2016-10-05T00:17:28.765Z,63.73
2016-10-05T00:19:27.915Z,63.73
2016-10-05T00:20:28.322Z,63.35
2016-10-05T00:21:27.921Z,63.83
2016-10-05T00:22:27.862Z,64.12
2016-10-05T00:23:27.773Z,63.73
2016-10-05T00:24:28.345Z,63.35
2016-10-05T00:26:27.673Z,64.02
2016-10-05T00:28:28.059Z,64.4
2016-10-05T00:29:27.607Z,64.31
2016-10-05T00:30:27.592Z,64.22
2016-10-05T00:31:27.544Z,64.59
2016-10-05T00:32:27.686Z,64.12
2016-10-05T00:33:27.476Z,63.83
2016-10-05T00:34:27.446Z,63.83
2016-10-05T00:35:27.477Z,64.02
2016-10-05T00:36:27.401Z,64.22
2016-10-05T00:37:27.359Z,64.5
2016-10-05T00:38:27.428Z,64.22
2016-10-05T00:39:27.317Z,64.56
2016-10-05T00:40:27.280Z,65.33
2016-10-05T00:41:27.269Z,64.95
2016-10-05T00:42:27.217Z,65.04
2016-10-05T00:43:27.179Z,64.95
2016-10-05T00:44:27.202Z,65.04
2016-10-05T00:45:27.134Z,64.95
2016-10-05T00:46:27.146Z,64.95
2016-10-05T00:47:27.071Z,65.14
2016-10-05T00:48:27.042Z,64.95
2016-10-05T00:49:27.109Z,65.42
2016-10-05T00:50:27.025Z,65.14
2016-10-05T00:51:41.626Z,65.14
2016-10-05T00:52:26.913Z,65.23
2016-10-05T00:53:26.916Z,65.14
2016-10-05T00:54:26.862Z,65.14
2016-10-05T00:55:41.502Z,64.85
2016-10-05T00:56:26.893Z,65.23
2016-10-05T00:57:26.767Z,64.22
2016-10-05T00:58:26.743Z,64.5
2016-10-05T00:59:26.740Z,64.79
2016-10-05T01:00:27.743Z,64.59
2016-10-05T01:01:26.767Z,64.56
2016-10-05T01:02:32.095Z,64.95
2016-10-05T01:03:26.607Z,65.33
2016-10-05T01:04:26.575Z,65.04
2016-10-05T01:05:26.524Z,64.85
2016-10-05T01:06:27.362Z,64.69
2016-10-05T01:07:26.534Z,63.73
2016-10-05T01:08:26.454Z,64.12
2016-10-05T01:09:26.474Z,64.22
2016-10-05T01:10:26.394Z,64.31
2016-10-05T01:11:26.361Z,64.47
2016-10-05T01:12:26.338Z,64.56
2016-10-05T01:13:26.288Z,65.33
2016-10-05T01:14:26.405Z,64.56
2016-10-05T01:15:26.329Z,65.33
2016-10-05T01:16:27.392Z,65.33
2016-10-05T01:17:26.177Z,65.14
2016-10-05T01:18:26.630Z,65.14
2016-10-05T01:19:26.165Z,64.95
2016-10-05T01:20:26.220Z,65.14
2016-10-05T01:21:26.065Z,64.85
2016-10-05T01:22:26.249Z,65.14
2016-10-05T01:23:26.467Z,64.56
2016-10-05T01:24:26.358Z,65.14
2016-10-05T01:25:25.959Z,64.75
2016-10-05T01:26:26.295Z,65.14
2016-10-05T01:28:25.859Z,65.33
2016-10-05T01:29:26.259Z,64.95
2016-10-05T01:30:25.836Z,64.56
2016-10-05T01:31:25.784Z,64.75
2016-10-05T01:33:26.331Z,64.47
2016-10-05T01:34:25.694Z,65.33
2016-10-05T01:35:25.654Z,65.23
2016-10-05T01:36:25.625Z,65.14
2016-10-05T01:37:25.677Z,64.85
2016-10-05T01:38:25.554Z,65.04
2016-10-05T01:39:25.565Z,65.04
2016-10-05T01:40:25.526Z,65.33
2016-10-05T01:41:25.475Z,65.04
2016-10-05T01:42:25.442Z,65.04
2016-10-05T01:43:25.424Z,66.09
2016-10-05T01:44:25.396Z,66
2016-10-05T01:45:25.404Z,65.23
2016-10-05T01:46:25.315Z,65.14
2016-10-05T01:47:25.302Z,64.95
2016-10-05T01:48:25.264Z,65.33
2016-10-05T01:49:25.239Z,65.14
2016-10-05T01:50:25.201Z,65.42
2016-10-05T01:51:25.175Z,65.14
2016-10-05T01:52:25.146Z,65.42
2016-10-05T01:53:25.115Z,65.23
2016-10-05T01:54:25.096Z,65.14
2016-10-05T01:55:39.738Z,65.14
2016-10-05T01:56:25.072Z,65.33
2016-10-05T01:57:25.379Z,65.04
2016-10-05T01:58:24.975Z,64.56
2016-10-05T01:59:24.949Z,64.66
2016-10-05T02:00:39.591Z,65.14
2016-10-05T02:01:24.924Z,64.75
2016-10-05T02:02:24.864Z,64.37
2016-10-05T02:03:24.826Z,64.95
2016-10-05T02:04:24.794Z,64.95
2016-10-05T02:05:25.161Z,65.3
2016-10-05T02:06:24.775Z,65.39
2016-10-05T02:07:24.697Z,65.14
2016-10-05T02:08:24.670Z,65.87
2016-10-05T02:09:24.658Z,65.68
2016-10-05T02:10:24.617Z,65.2
2016-10-05T02:11:24.644Z,65.14
2016-10-05T02:12:26.888Z,65.2
2016-10-05T02:13:24.923Z,65.11
2016-10-05T02:14:24.489Z,64.85
2016-10-05T02:15:24.464Z,64.56
2016-10-05T02:16:24.573Z,64.75
2016-10-05T02:17:24.414Z,65.33
2016-10-05T02:18:24.378Z,65.2
2016-10-05T02:19:24.744Z,65.3
2016-10-05T02:20:24.397Z,65.01
2016-10-05T02:21:24.303Z,65.39
2016-10-05T02:22:24.272Z,64.85
2016-10-05T02:23:24.230Z,65.77
2016-10-05T02:24:24.216Z,65.39
2016-10-05T02:25:24.876Z,65.2
2016-10-05T02:26:24.197Z,65.3
2016-10-05T02:27:38.789Z,65.3
2016-10-05T02:28:24.435Z,65.97
2016-10-05T02:29:24.045Z,65.48
2016-10-05T02:30:24.021Z,65.2
2016-10-05T02:31:24.063Z,65.87
2016-10-05T02:32:24.372Z,66.06
2016-10-05T02:33:24.094Z,65.97
2016-10-05T02:34:23.933Z,66.06
2016-10-05T02:35:23.878Z,66.35
2016-10-05T02:36:23.926Z,66.25
2016-10-05T02:37:23.824Z,66.44
2016-10-05T02:38:23.784Z,66.79
2016-10-05T02:39:23.771Z,66.89
2016-10-05T02:40:24.439Z,67.18
2016-10-05T02:41:23.763Z,67.36
2016-10-05T02:43:23.640Z,67.27
2016-10-05T02:44:24.322Z,67.65
2016-10-05T02:45:23.598Z,68.04
2016-10-05T02:46:23.605Z,67.94
2016-10-05T02:47:23.522Z,67.27
2016-10-05T02:48:23.551Z,67.94
2016-10-05T02:49:23.472Z,68.04
2016-10-05T02:50:38.107Z,67.84
2016-10-05T02:51:24.167Z,67.94
2016-10-05T02:52:23.359Z,67.65
2016-10-05T02:53:23.328Z,67.18
2016-10-05T02:54:23.308Z,67.55
2016-10-05T02:55:23.661Z,66.99
2016-10-05T02:56:23.236Z,67.08
2016-10-05T02:57:23.286Z,66.7
2016-10-05T02:58:23.186Z,66.5
2016-10-05T02:59:23.142Z,66.35
2016-10-05T03:00:23.116Z,66.44
2016-10-05T03:01:23.092Z,65.87
2016-10-05T03:02:23.185Z,66.16
2016-10-05T03:03:23.042Z,65.97
2016-10-05T03:04:22.997Z,65.58
2016-10-05T03:05:24.674Z,66.06
2016-10-05T03:06:22.957Z,66.13
2016-10-05T03:07:22.931Z,66.31
2016-10-05T03:08:22.969Z,66.13
2016-10-05T03:09:22.862Z,66.13
2016-10-05T03:10:22.836Z,66.03
2016-10-05T03:11:23.472Z,66.7
2016-10-05T03:12:37.450Z,66.22
2016-10-05T03:13:22.744Z,65.93
2016-10-05T03:14:37.387Z,66.22
2016-10-05T03:15:22.677Z,66.6
2016-10-05T03:16:22.641Z,66.31
2016-10-05T03:17:22.722Z,66.31
2016-10-05T03:18:22.589Z,65.74
2016-10-05T03:19:37.234Z,66.03
2016-10-05T03:20:22.528Z,66.5
2016-10-05T03:21:22.527Z,66.6
2016-10-05T03:22:22.463Z,66.7
2016-10-05T03:23:22.448Z,67.27
2016-10-05T03:24:22.433Z,67.27
2016-10-05T03:25:22.385Z,67.08
2016-10-05T03:26:37.032Z,66.6
2016-10-05T03:27:22.408Z,66.31
2016-10-05T03:28:22.290Z,66.7
2016-10-05T03:29:22.256Z,66.41
2016-10-05T03:30:22.663Z,66.31
2016-10-05T03:31:22.866Z,66.13
2016-10-05T03:32:22.221Z,66.22
2016-10-05T03:33:22.631Z,67.18
2016-10-05T03:34:22.165Z,66.66
2016-10-05T03:35:22.111Z,67.14
2016-10-05T03:36:22.047Z,67.14
2016-10-05T03:37:36.748Z,67.24
2016-10-05T03:38:21.981Z,68.1
2016-10-05T03:39:21.969Z,68
2016-10-05T03:40:21.939Z,67.14
2016-10-05T03:41:21.940Z,68
2016-10-05T03:42:21.861Z,67.62
2016-10-05T03:43:36.515Z,67.14
2016-10-05T03:44:21.840Z,67.52
2016-10-05T03:45:21.815Z,67.14
2016-10-05T03:46:21.775Z,66.95
2016-10-05T03:47:21.720Z,67.24
2016-10-05T03:49:21.653Z,67.33
2016-10-05T03:50:21.619Z,67.33
2016-10-05T03:51:21.595Z,67.14
2016-10-05T03:52:21.618Z,68
2016-10-05T03:53:21.881Z,68.35
2016-10-05T03:54:21.512Z,67.05
2016-10-05T03:55:21.461Z,66.56
2016-10-05T03:57:21.477Z,65.84
2016-10-05T03:58:22.170Z,65.07
2016-10-05T03:59:21.347Z,65.26
2016-10-05T04:00:21.682Z,65.64
2016-10-05T04:01:22.146Z,65.8
2016-10-05T04:02:21.646Z,65.9
2016-10-05T04:03:21.285Z,66.09
2016-10-05T04:04:21.372Z,66.09
2016-10-05T04:05:21.821Z,66.28
2016-10-05T04:06:21.140Z,66.28
2016-10-05T04:07:21.210Z,66.28
2016-10-05T04:08:21.180Z,66
2016-10-05T04:09:21.155Z,65.9
2016-10-05T04:10:21.048Z,65.61
2016-10-05T04:11:21.063Z,66.09
2016-10-05T04:12:20.966Z,66.19
2016-10-05T04:13:20.930Z,66.25
2016-10-05T04:14:20.939Z,65.9
2016-10-05T04:15:20.855Z,65.71
2016-10-05T04:16:20.896Z,66
2016-10-05T10:52:16.215Z,60.08
2016-10-05T11:13:47.951Z,53.87
2016-10-05T11:17:01.046Z,54.25
